createdAt,value
2022-10-04T00:05:03.281Z,3.13
2022-10-04T00:10:19.747Z,3.40
2022-10-04T00:21:10.265Z,3.80
2022-10-04T00:26:50.268Z,2.70
2022-10-04T00:32:28.201Z,2.67
2022-10-04T00:37:57.315Z,3.00
2022-10-04T00:43:05.517Z,2.65
2022-10-04T00:48:48.777Z,3.33
2022-10-04T00:54:02.506Z,3.80
2022-10-04T00:59:32.651Z,3.33
2022-10-04T01:04:44.151Z,3.13
2022-10-04T01:09:54.770Z,3.97
2022-10-04T01:15:07.568Z,2.47
2022-10-04T01:20:32.371Z,2.30
2022-10-04T01:25:49.632Z,2.40
2022-10-04T01:30:54.351Z,3.03
2022-10-04T01:35:58.936Z,3.23
2022-10-04T01:41:08.575Z,3.22
2022-10-04T01:46:16.777Z,3.00
2022-10-04T01:51:25.267Z,2.92
2022-10-04T01:56:35.005Z,3.60
2022-10-04T02:01:44.580Z,3.67
2022-10-04T02:06:53.201Z,3.55
2022-10-04T02:11:59.274Z,3.90
2022-10-04T02:17:10.625Z,3.90
2022-10-04T02:22:14.954Z,3.47
2022-10-04T02:27:20.444Z,4.05
2022-10-04T02:32:42.233Z,3.50
2022-10-04T02:37:48.492Z,4.20
2022-10-04T02:43:00.978Z,3.75
2022-10-04T02:48:13.941Z,4.13
2022-10-04T02:53:22.755Z,3.05
2022-10-04T02:58:30.906Z,2.90
2022-10-04T03:03:39.924Z,3.17
2022-10-04T03:08:52.754Z,3.33
2022-10-04T03:14:05.728Z,4.60
2022-10-04T03:19:14.565Z,3.70
2022-10-04T03:24:21.797Z,3.20
2022-10-04T03:29:32.681Z,3.92
2022-10-04T03:34:40.198Z,2.67
2022-10-04T03:39:47.231Z,3.15
2022-10-04T03:44:55.279Z,3.10
2022-10-04T03:50:02.576Z,2.33
2022-10-04T03:55:11.908Z,2.97
2022-10-04T04:00:21.620Z,3.55
2022-10-04T04:05:32.600Z,2.50
2022-10-04T04:10:44.625Z,3.33
2022-10-04T04:15:53.290Z,3.40
2022-10-04T04:21:04.172Z,3.00
2022-10-04T04:26:25.106Z,3.33
2022-10-04T04:31:36.518Z,2.80
2022-10-04T04:36:41.865Z,3.92
2022-10-04T04:41:50.154Z,3.10
2022-10-04T04:47:00.800Z,3.90
2022-10-04T04:52:05.166Z,3.55
2022-10-04T04:57:10.570Z,2.83
2022-10-04T05:02:35.639Z,3.97
2022-10-04T05:07:44.334Z,3.07
2022-10-04T05:12:52.892Z,3.60
2022-10-04T05:18:02.716Z,2.65
2022-10-04T05:23:15.068Z,3.03
2022-10-04T05:28:22.774Z,2.90
2022-10-04T05:33:46.702Z,2.72
2022-10-04T05:39:04.435Z,2.58
2022-10-04T05:44:27.608Z,2.80
2022-10-04T05:49:43.956Z,3.10
2022-10-04T05:54:52.106Z,2.75
2022-10-04T06:00:09.918Z,3.45
2022-10-04T06:05:28.859Z,2.45
2022-10-04T06:10:59.224Z,2.05
2022-10-04T06:16:16.907Z,2.30
2022-10-04T06:21:25.684Z,3.05
2022-10-04T06:26:41.186Z,2.65
2022-10-04T06:32:22.275Z,2.60
2022-10-04T06:37:56.766Z,2.60
2022-10-04T06:43:20.212Z,2.65
2022-10-04T06:48:57.966Z,3.13
2022-10-04T06:54:16.377Z,2.20
2022-10-04T07:00:04.870Z,3.30
2022-10-04T07:05:20.597Z,2.60
2022-10-04T07:10:34.536Z,2.50
2022-10-04T07:15:53.765Z,2.45
2022-10-04T07:21:07.094Z,2.50
2022-10-04T07:26:22.510Z,2.78
2022-10-04T07:31:29.270Z,2.50
2022-10-04T07:36:45.037Z,3.58
2022-10-04T07:41:54.519Z,2.10
2022-10-04T07:47:04.296Z,2.67
2022-10-04T07:52:32.315Z,2.45
2022-10-04T07:57:47.475Z,2.70
2022-10-04T08:03:12.572Z,2.83
2022-10-04T08:08:40.599Z,2.95
2022-10-04T08:13:53.612Z,2.40
2022-10-04T08:19:20.589Z,3.10
2022-10-04T08:24:36.857Z,3.80
2022-10-04T08:30:02.379Z,2.78
2022-10-04T08:40:12.742Z,2.45
2022-10-04T08:45:58.417Z,2.33
2022-10-04T08:51:24.804Z,2.60
2022-10-04T09:02:07.000Z,2.35
2022-10-04T09:07:39.471Z,2.35
2022-10-04T09:12:57.567Z,3.35
2022-10-04T09:18:21.185Z,2.15
2022-10-04T09:24:04.822Z,2.40
2022-10-04T09:29:24.040Z,2.40
2022-10-04T09:34:39.162Z,3.05
2022-10-04T09:40:07.739Z,2.60
2022-10-04T09:45:32.028Z,2.58
2022-10-04T09:51:08.410Z,2.47
2022-10-04T09:56:43.336Z,4.70
2022-10-04T10:02:13.272Z,3.90
2022-10-04T10:07:38.204Z,2.05
2022-10-04T10:13:21.240Z,2.70
2022-10-04T10:18:42.753Z,3.45
2022-10-04T10:24:09.769Z,2.45
2022-10-04T10:29:54.755Z,3.67
2022-10-04T10:35:43.465Z,2.30
2022-10-04T10:41:01.128Z,2.50
2022-10-04T10:46:21.831Z,2.50
2022-10-04T10:51:47.025Z,1.90
2022-10-04T10:57:18.380Z,1.95
2022-10-04T11:02:51.769Z,2.08
2022-10-04T11:08:08.188Z,1.88
2022-10-04T11:13:41.631Z,1.90
2022-10-04T11:19:19.448Z,2.40
2022-10-04T11:24:56.844Z,2.78
2022-10-04T11:30:17.368Z,2.80
2022-10-04T11:35:46.644Z,3.17
2022-10-04T11:41:11.083Z,2.80
2022-10-04T11:46:25.064Z,3.22
2022-10-04T11:52:07.426Z,2.97
2022-10-04T11:57:32.365Z,2.70
2022-10-04T12:03:14.778Z,3.10
2022-10-04T12:08:39.274Z,3.45
2022-10-04T12:14:06.100Z,2.58
2022-10-04T12:19:54.494Z,2.22
2022-10-04T12:25:27.010Z,3.80
2022-10-04T12:30:44.485Z,4.57
2022-10-04T12:36:13.725Z,3.65
2022-10-04T12:41:29.922Z,3.63
2022-10-04T12:46:46.293Z,3.70
2022-10-04T12:51:59.152Z,2.95
2022-10-04T12:57:20.268Z,2.80
2022-10-04T13:02:49.039Z,3.08
2022-10-04T13:08:12.769Z,2.75
2022-10-04T13:13:42.740Z,3.55
2022-10-04T13:18:56.561Z,4.63
2022-10-04T13:24:09.032Z,4.60
2022-10-04T13:29:24.370Z,3.88
2022-10-04T13:34:37.790Z,4.03
2022-10-04T13:39:59.013Z,3.40
2022-10-04T13:45:24.448Z,4.13
2022-10-04T13:50:39.418Z,3.65
2022-10-04T13:56:07.115Z,3.90
2022-10-04T14:01:41.730Z,4.07
2022-10-04T14:12:49.906Z,3.38
2022-10-04T14:18:27.456Z,3.40
2022-10-04T14:23:58.198Z,3.33
2022-10-04T14:29:35.788Z,2.80
2022-10-04T14:34:57.229Z,3.38
2022-10-04T14:40:19.762Z,3.20
2022-10-04T14:45:39.842Z,3.53
2022-10-04T14:50:57.883Z,4.15
2022-10-04T14:56:37.131Z,3.70
2022-10-04T15:02:07.370Z,3.00
2022-10-04T15:07:21.567Z,3.30
2022-10-04T15:18:29.312Z,3.58
2022-10-04T15:23:43.603Z,3.25
2022-10-04T15:29:03.688Z,3.28
2022-10-04T15:34:25.197Z,4.43
2022-10-04T15:39:43.132Z,4.30
2022-10-04T15:45:30.133Z,5.05
2022-10-04T15:50:40.977Z,4.35
2022-10-04T15:56:12.847Z,4.68
2022-10-04T16:01:55.305Z,5.38
2022-10-04T16:07:12.984Z,5.57
2022-10-04T16:12:25.288Z,5.63
2022-10-04T16:18:00.350Z,6.70
2022-10-04T16:23:28.070Z,6.68
2022-10-04T16:29:04.771Z,6.57
2022-10-04T16:34:31.829Z,6.82
2022-10-04T16:40:02.993Z,6.40
2022-10-04T16:45:33.577Z,6.20
2022-10-04T16:51:03.954Z,5.43
2022-10-04T16:56:16.573Z,5.55
2022-10-04T17:02:11.369Z,6.07
2022-10-04T17:07:24.442Z,5.22
2022-10-04T17:12:38.863Z,7.05
2022-10-04T17:17:48.133Z,6.75
2022-10-04T17:23:05.886Z,8.00
2022-10-04T17:28:26.380Z,6.65
2022-10-04T17:33:53.777Z,6.05
2022-10-04T17:39:09.327Z,5.80
2022-10-04T17:44:42.058Z,5.75
2022-10-04T17:50:18.061Z,5.28
2022-10-04T17:55:28.837Z,5.77
2022-10-04T18:00:52.389Z,6.00
2022-10-04T18:05:59.343Z,4.80
2022-10-04T18:11:07.039Z,5.35
2022-10-04T18:16:22.489Z,5.90
2022-10-04T18:21:29.681Z,5.43
2022-10-04T18:26:34.665Z,5.53
2022-10-04T18:31:41.397Z,5.18
2022-10-04T18:36:54.059Z,5.22
2022-10-04T18:42:19.837Z,5.15
2022-10-04T18:47:33.601Z,5.60
2022-10-04T18:52:45.850Z,6.38
2022-10-04T18:58:13.865Z,6.05
2022-10-04T19:03:28.998Z,6.20
2022-10-04T19:08:40.961Z,6.07
2022-10-04T19:13:52.284Z,7.10
2022-10-04T19:19:34.393Z,5.95
2022-10-04T19:25:01.867Z,7.07
2022-10-04T19:30:18.205Z,5.13
2022-10-04T19:35:35.029Z,5.13
2022-10-04T19:40:49.353Z,4.88
2022-10-04T19:46:11.278Z,5.10
2022-10-04T19:51:28.364Z,4.63
2022-10-04T19:56:40.000Z,4.63
2022-10-04T20:01:45.086Z,5.38
2022-10-04T20:06:50.115Z,4.73
2022-10-04T20:11:55.467Z,4.37
2022-10-04T20:17:07.166Z,6.55
2022-10-04T20:22:29.531Z,7.55
2022-10-04T20:28:03.821Z,6.75
2022-10-04T20:33:07.951Z,6.38
2022-10-04T20:38:31.808Z,7.00
2022-10-04T20:43:54.748Z,7.10
2022-10-04T20:48:59.633Z,7.97
2022-10-04T20:54:03.664Z,8.85
2022-10-04T20:59:16.814Z,6.85
2022-10-04T21:04:30.038Z,5.13
2022-10-04T21:09:36.063Z,5.45
2022-10-04T21:14:41.543Z,5.10
2022-10-04T21:19:46.459Z,4.90
2022-10-04T21:24:56.023Z,4.68
2022-10-04T21:30:02.462Z,3.90
2022-10-04T21:35:08.171Z,5.13
2022-10-04T21:40:13.938Z,6.57
2022-10-04T21:45:19.926Z,4.78
2022-10-04T21:50:24.119Z,6.90
2022-10-04T21:55:28.079Z,6.10
2022-10-04T22:00:34.329Z,5.47
2022-10-04T22:05:38.522Z,6.55
2022-10-04T22:10:43.582Z,5.30
2022-10-04T22:15:49.129Z,4.47
2022-10-04T22:20:53.093Z,5.53
2022-10-04T22:25:57.707Z,5.55
2022-10-04T22:31:03.190Z,5.35
2022-10-04T22:36:16.053Z,5.90
2022-10-04T22:41:20.975Z,5.30
2022-10-04T22:46:34.721Z,7.40
2022-10-04T22:52:02.739Z,5.80
2022-10-04T22:57:06.885Z,5.82
2022-10-04T23:02:16.128Z,7.50
2022-10-04T23:07:22.079Z,6.43
2022-10-04T23:12:27.730Z,6.78
2022-10-04T23:17:36.143Z,6.40
2022-10-04T23:22:43.392Z,6.93
2022-10-04T23:27:50.572Z,6.63
2022-10-04T23:33:02.382Z,7.32
2022-10-04T23:38:07.432Z,7.15
2022-10-04T23:43:17.042Z,7.38
2022-10-04T23:48:25.530Z,6.57
2022-10-04T23:53:32.581Z,8.57
2022-10-04T23:58:40.137Z,7.75
